createdAt,value
2023-04-21T00:08:53.577Z,79.88
2023-04-21T00:19:15.501Z,81.14
2023-04-21T00:29:36.917Z,80.25
2023-04-21T00:39:58.662Z,80.98
2023-04-21T00:50:20.180Z,80.41
2023-04-21T01:00:42.986Z,80.71
2023-04-21T01:11:12.051Z,80.79
2023-04-21T01:21:40.687Z,80.16
2023-04-21T01:32:06.417Z,80.31
2023-04-21T01:42:28.829Z,79.47
2023-04-21T01:52:50.261Z,80.02
2023-04-21T02:03:11.802Z,80.27
2023-04-21T02:13:33.368Z,79.70
2023-04-21T02:23:54.874Z,79.06
2023-04-21T02:34:16.277Z,80.08
2023-04-21T02:44:38.285Z,79.96
2023-04-21T02:54:59.637Z,83.11
2023-04-21T03:05:21.230Z,79.85
2023-04-21T03:15:42.715Z,80.39
2023-04-21T03:26:10.359Z,79.86
2023-04-21T03:36:31.903Z,80.76
2023-04-21T03:46:54.297Z,80.49
2023-04-21T03:57:16.258Z,81.25
2023-04-21T04:07:37.826Z,80.76
2023-04-21T04:17:59.970Z,80.08
2023-04-21T04:28:22.791Z,80.60
2023-04-21T04:38:45.887Z,80.10
2023-04-21T04:49:07.262Z,81.16
2023-04-21T04:59:30.120Z,81.50
2023-04-21T05:09:51.710Z,81.25
2023-04-21T05:20:13.194Z,79.77
2023-04-21T05:30:34.553Z,79.90
2023-04-21T05:40:56.207Z,79.85
2023-04-21T05:51:17.766Z,80.77
2023-04-21T06:01:39.170Z,80.13
2023-04-21T06:12:00.742Z,79.91
2023-04-21T06:22:25.823Z,80.08
2023-04-21T06:32:48.555Z,79.16
2023-04-21T06:43:09.978Z,78.04
2023-04-21T06:53:31.568Z,78.76
2023-04-21T07:03:53.355Z,74.99
2023-04-21T07:14:15.141Z,79.58
2023-04-21T07:24:37.433Z,76.21
2023-04-21T07:34:58.880Z,74.92
2023-04-21T07:45:20.390Z,74.89
2023-04-21T07:55:41.797Z,73.44
2023-04-21T08:06:03.574Z,72.26
2023-04-21T08:16:25.449Z,72.02
2023-04-21T08:26:47.001Z,72.70
2023-04-21T08:37:08.391Z,71.37
2023-04-21T08:47:30.012Z,70.49
2023-04-21T08:57:51.434Z,72.82
2023-04-21T09:08:14.116Z,70.23
2023-04-21T09:18:40.124Z,69.12
2023-04-21T09:29:06.466Z,68.35
2023-04-21T09:39:43.131Z,67.47
2023-04-21T09:50:12.896Z,66.06
2023-04-21T10:00:39.299Z,66.04
2023-04-21T10:11:00.935Z,65.93
2023-04-21T10:21:24.142Z,65.22
2023-04-21T10:31:52.591Z,64.52
2023-04-21T10:42:17.487Z,63.95
2023-04-21T10:52:38.924Z,61.75
2023-04-21T11:03:02.558Z,63.01
2023-04-21T11:13:25.224Z,61.11
2023-04-21T11:23:49.890Z,60.65
2023-04-21T11:34:11.715Z,57.80
2023-04-21T11:44:40.880Z,55.59
2023-04-21T11:55:04.084Z,57.65
2023-04-21T12:05:25.550Z,54.00
2023-04-21T12:15:47.030Z,56.88
2023-04-21T12:26:08.920Z,56.53
2023-04-21T12:36:30.417Z,56.09
2023-04-21T12:46:52.226Z,54.09
2023-04-21T12:57:13.784Z,51.72
2023-04-21T13:07:35.327Z,49.92
2023-04-21T13:17:56.720Z,55.06
2023-04-21T13:28:19.176Z,57.97
2023-04-21T13:38:40.999Z,54.42
2023-04-21T13:49:02.558Z,53.70
2023-04-21T13:59:24.022Z,54.14
2023-04-21T14:09:45.815Z,50.78
2023-04-21T14:20:09.380Z,54.91
2023-04-21T14:30:30.847Z,53.12
2023-04-21T14:40:55.260Z,53.24
2023-04-21T14:51:17.056Z,49.81
2023-04-21T15:01:38.617Z,52.48
2023-04-21T15:12:00.228Z,53.27
2023-04-21T15:22:21.695Z,49.77
2023-04-21T15:32:43.156Z,53.33
2023-04-21T15:43:04.552Z,50.88
2023-04-21T15:53:26.467Z,47.88
2023-04-21T16:03:49.051Z,49.85
2023-04-21T16:14:11.104Z,51.93
2023-04-21T16:24:32.577Z,53.65
2023-04-21T16:34:53.995Z,50.01
2023-04-21T16:45:15.501Z,51.44
2023-04-21T16:55:36.976Z,51.96
2023-04-21T17:05:58.351Z,52.53
2023-04-21T17:16:19.732Z,50.37
2023-04-21T17:26:41.233Z,51.33
2023-04-21T17:37:04.503Z,52.24
2023-04-21T17:47:25.973Z,52.60
2023-04-21T17:57:47.366Z,55.25
2023-04-21T18:08:08.872Z,54.91
2023-04-21T18:18:30.350Z,56.13
2023-04-21T18:28:51.796Z,52.66
2023-04-21T18:39:13.183Z,54.04
2023-04-21T18:49:34.530Z,56.53
2023-04-21T18:59:55.941Z,56.22
2023-04-21T19:10:17.529Z,56.73
2023-04-21T19:20:39.030Z,54.98
2023-04-21T19:31:00.386Z,57.52
2023-04-21T19:41:21.820Z,56.85
2023-04-21T19:51:43.170Z,56.95
2023-04-21T20:02:04.741Z,55.49
2023-04-21T20:12:26.315Z,57.81
2023-04-21T20:22:48.728Z,58.07
2023-04-21T20:33:10.160Z,56.74
2023-04-21T20:43:33.225Z,57.81
2023-04-21T20:53:54.794Z,57.87
2023-04-21T21:04:16.444Z,57.67
2023-04-21T21:14:37.912Z,58.28
2023-04-21T21:24:59.316Z,53.97
2023-04-21T21:35:21.101Z,57.53
2023-04-21T21:45:42.610Z,58.70
2023-04-21T21:56:04.119Z,58.71
2023-04-21T22:06:26.921Z,55.91
2023-04-21T22:16:48.632Z,58.64
2023-04-21T22:27:10.009Z,59.25
2023-04-21T22:37:31.360Z,59.09
2023-04-21T22:47:52.796Z,59.62
2023-04-21T22:58:15.588Z,56.67
2023-04-21T23:08:37.109Z,59.77
2023-04-21T23:18:58.559Z,60.67
2023-04-21T23:29:19.921Z,60.52
2023-04-21T23:39:41.286Z,59.99
2023-04-21T23:50:02.688Z,60.44
